sensor_id;sensor_type;location;lat;lon;timestamp;temperature;humidity
71304;DHT22;59091;47.446;19.148;2022-07-21T00:00:32;24.55;46.63
71304;DHT22;59091;47.446;19.148;2022-07-21T00:02:58;24.55;46.55
71304;DHT22;59091;47.446;19.148;2022-07-21T00:05:24;24.49;46.77
71304;DHT22;59091;47.446;19.148;2022-07-21T00:07:51;24.47;46.46
71304;DHT22;59091;47.446;19.148;2022-07-21T00:10:17;24.47;45.67
71304;DHT22;59091;47.446;19.148;2022-07-21T00:12:43;24.44;46.52
71304;DHT22;59091;47.446;19.148;2022-07-21T00:15:10;24.41;45.86
71304;DHT22;59091;47.446;19.148;2022-07-21T00:17:35;24.42;45.32
71304;DHT22;59091;47.446;19.148;2022-07-21T00:20:01;24.39;44.94
71304;DHT22;59091;47.446;19.148;2022-07-21T00:22:27;24.41;44.49
71304;DHT22;59091;47.446;19.148;2022-07-21T00:24:52;24.44;43.96
71304;DHT22;59091;47.446;19.148;2022-07-21T00:27:18;24.45;43.72
71304;DHT22;59091;47.446;19.148;2022-07-21T00:29:44;24.54;43.62
71304;DHT22;59091;47.446;19.148;2022-07-21T00:32:09;24.49;42.69
71304;DHT22;59091;47.446;19.148;2022-07-21T00:34:35;24.55;42.33
71304;DHT22;59091;47.446;19.148;2022-07-21T00:37:00;24.59;41.38
71304;DHT22;59091;47.446;19.148;2022-07-21T00:39:26;24.62;41.10
71304;DHT22;59091;47.446;19.148;2022-07-21T00:41:51;24.65;40.90
71304;DHT22;59091;47.446;19.148;2022-07-21T00:44:24;24.77;40.42
71304;DHT22;59091;47.446;19.148;2022-07-21T00:46:50;24.79;40.01
71304;DHT22;59091;47.446;19.148;2022-07-21T00:49:15;24.86;39.79
71304;DHT22;59091;47.446;19.148;2022-07-21T00:51:41;24.96;39.51
71304;DHT22;59091;47.446;19.148;2022-07-21T00:54:07;25.00;39.26
71304;DHT22;59091;47.446;19.148;2022-07-21T00:56:32;25.04;38.98
71304;DHT22;59091;47.446;19.148;2022-07-21T00:58:58;25.10;39.11
71304;DHT22;59091;47.446;19.148;2022-07-21T01:01:23;25.16;39.40
71304;DHT22;59091;47.446;19.148;2022-07-21T01:03:49;25.10;39.60
71304;DHT22;59091;47.446;19.148;2022-07-21T01:06:14;25.09;40.15
71304;DHT22;59091;47.446;19.148;2022-07-21T01:08:40;25.04;40.62
71304;DHT22;59091;47.446;19.148;2022-07-21T01:11:05;24.96;41.06
71304;DHT22;59091;47.446;19.148;2022-07-21T01:13:31;24.92;41.59
71304;DHT22;59091;47.446;19.148;2022-07-21T01:15:57;24.79;41.24
71304;DHT22;59091;47.446;19.148;2022-07-21T01:18:22;24.75;41.52
71304;DHT22;59091;47.446;19.148;2022-07-21T01:20:54;24.69;41.62
71304;DHT22;59091;47.446;19.148;2022-07-21T01:23:20;24.63;42.03
71304;DHT22;59091;47.446;19.148;2022-07-21T01:25:50;24.62;42.20
71304;DHT22;59091;47.446;19.148;2022-07-21T01:28:16;24.54;42.95
71304;DHT22;59091;47.446;19.148;2022-07-21T01:30:42;24.48;42.83
71304;DHT22;59091;47.446;19.148;2022-07-21T01:33:07;24.45;43.32
71304;DHT22;59091;47.446;19.148;2022-07-21T01:35:33;24.36;43.27
71304;DHT22;59091;47.446;19.148;2022-07-21T01:37:59;24.32;43.19
71304;DHT22;59091;47.446;19.148;2022-07-21T01:40:24;24.31;43.41
71304;DHT22;59091;47.446;19.148;2022-07-21T01:43:08;24.21;43.97
71304;DHT22;59091;47.446;19.148;2022-07-21T01:45:34;24.21;44.03
71304;DHT22;59091;47.446;19.148;2022-07-21T01:47:59;24.14;43.92
71304;DHT22;59091;47.446;19.148;2022-07-21T01:50:25;24.13;43.73
71304;DHT22;59091;47.446;19.148;2022-07-21T01:52:58;24.07;43.61
71304;DHT22;59091;47.446;19.148;2022-07-21T01:55:24;24.00;43.27
71304;DHT22;59091;47.446;19.148;2022-07-21T01:57:50;24.03;43.44
71304;DHT22;59091;47.446;19.148;2022-07-21T02:00:16;23.98;44.85
71304;DHT22;59091;47.446;19.148;2022-07-21T02:02:42;23.94;46.25
71304;DHT22;59091;47.446;19.148;2022-07-21T02:05:08;23.88;44.61
71304;DHT22;59091;47.446;19.148;2022-07-21T02:07:34;23.91;43.96
71304;DHT22;59091;47.446;19.148;2022-07-21T02:09:59;23.93;43.64
71304;DHT22;59091;47.446;19.148;2022-07-21T02:12:24;23.93;43.26
71304;DHT22;59091;47.446;19.148;2022-07-21T02:14:50;23.90;44.12
71304;DHT22;59091;47.446;19.148;2022-07-21T02:17:16;23.96;43.65
71304;DHT22;59091;47.446;19.148;2022-07-21T02:19:41;23.91;43.98
71304;DHT22;59091;47.446;19.148;2022-07-21T02:22:06;23.90;44.78
71304;DHT22;59091;47.446;19.148;2022-07-21T02:24:32;23.87;43.73
71304;DHT22;59091;47.446;19.148;2022-07-21T02:27:00;23.87;44.43
71304;DHT22;59091;47.446;19.148;2022-07-21T02:29:25;23.78;43.93
71304;DHT22;59091;47.446;19.148;2022-07-21T02:31:50;23.87;43.37
71304;DHT22;59091;47.446;19.148;2022-07-21T02:34:16;23.90;43.33
71304;DHT22;59091;47.446;19.148;2022-07-21T02:36:42;23.90;43.50
71304;DHT22;59091;47.446;19.148;2022-07-21T02:39:07;23.90;43.04
71304;DHT22;59091;47.446;19.148;2022-07-21T02:41:32;23.88;43.21
71304;DHT22;59091;47.446;19.148;2022-07-21T02:43:58;23.87;43.10
71304;DHT22;59091;47.446;19.148;2022-07-21T02:46:23;23.88;43.00
71304;DHT22;59091;47.446;19.148;2022-07-21T02:48:49;23.88;44.03
71304;DHT22;59091;47.446;19.148;2022-07-21T02:51:14;23.88;44.49
71304;DHT22;59091;47.446;19.148;2022-07-21T02:53:39;23.84;43.70
71304;DHT22;59091;47.446;19.148;2022-07-21T02:56:05;23.81;45.03
71304;DHT22;59091;47.446;19.148;2022-07-21T02:58:30;23.81;45.43
71304;DHT22;59091;47.446;19.148;2022-07-21T03:01:01;23.77;47.76
71304;DHT22;59091;47.446;19.148;2022-07-21T03:03:29;23.94;48.38
71304;DHT22;59091;47.446;19.148;2022-07-21T03:05:55;24.03;48.11
71304;DHT22;59091;47.446;19.148;2022-07-21T03:08:22;24.20;47.82
71304;DHT22;59091;47.446;19.148;2022-07-21T03:10:48;24.35;46.64
71304;DHT22;59091;47.446;19.148;2022-07-21T03:13:13;24.39;46.47
71304;DHT22;59091;47.446;19.148;2022-07-21T03:15:40;24.48;46.70
71304;DHT22;59091;47.446;19.148;2022-07-21T03:18:06;24.58;46.06
71304;DHT22;59091;47.446;19.148;2022-07-21T03:20:34;24.65;45.36
71304;DHT22;59091;47.446;19.148;2022-07-21T03:23:00;24.66;45.90
71304;DHT22;59091;47.446;19.148;2022-07-21T03:25:25;24.69;45.72
71304;DHT22;59091;47.446;19.148;2022-07-21T03:27:51;24.76;45.58
71304;DHT22;59091;47.446;19.148;2022-07-21T03:30:17;24.83;45.21
71304;DHT22;59091;47.446;19.148;2022-07-21T03:32:43;24.87;45.19
71304;DHT22;59091;47.446;19.148;2022-07-21T03:35:10;24.95;44.68
71304;DHT22;59091;47.446;19.148;2022-07-21T03:37:45;24.99;44.60
71304;DHT22;59091;47.446;19.148;2022-07-21T03:40:13;25.00;44.67
71304;DHT22;59091;47.446;19.148;2022-07-21T03:42:39;25.03;44.68
71304;DHT22;59091;47.446;19.148;2022-07-21T03:45:05;25.09;44.56
71304;DHT22;59091;47.446;19.148;2022-07-21T03:47:31;25.14;44.60
71304;DHT22;59091;47.446;19.148;2022-07-21T03:49:56;25.17;44.29
71304;DHT22;59091;47.446;19.148;2022-07-21T03:52:21;25.24;44.29
71304;DHT22;59091;47.446;19.148;2022-07-21T03:54:47;25.33;43.80
71304;DHT22;59091;47.446;19.148;2022-07-21T03:57:12;25.34;44.22
71304;DHT22;59091;47.446;19.148;2022-07-21T03:59:37;25.41;44.15
71304;DHT22;59091;47.446;19.148;2022-07-21T04:02:03;25.43;44.23
71304;DHT22;59091;47.446;19.148;2022-07-21T04:04:28;25.47;44.25
71304;DHT22;59091;47.446;19.148;2022-07-21T04:06:54;25.51;44.20
71304;DHT22;59091;47.446;19.148;2022-07-21T04:09:19;25.58;44.26
71304;DHT22;59091;47.446;19.148;2022-07-21T04:11:44;25.58;44.06
71304;DHT22;59091;47.446;19.148;2022-07-21T04:14:10;25.70;43.90
71304;DHT22;59091;47.446;19.148;2022-07-21T04:16:35;25.73;43.69
71304;DHT22;59091;47.446;19.148;2022-07-21T04:19:01;25.78;43.74
71304;DHT22;59091;47.446;19.148;2022-07-21T04:21:26;25.82;43.74
71304;DHT22;59091;47.446;19.148;2022-07-21T04:23:52;25.88;43.67
71304;DHT22;59091;47.446;19.148;2022-07-21T04:26:17;25.95;43.36
71304;DHT22;59091;47.446;19.148;2022-07-21T04:28:42;25.96;43.46
71304;DHT22;59091;47.446;19.148;2022-07-21T04:31:08;26.05;43.21
71304;DHT22;59091;47.446;19.148;2022-07-21T04:33:33;26.11;43.42
71304;DHT22;59091;47.446;19.148;2022-07-21T04:36:00;26.16;43.08
71304;DHT22;59091;47.446;19.148;2022-07-21T04:38:25;26.21;42.78
71304;DHT22;59091;47.446;19.148;2022-07-21T04:40:51;26.31;43.21
71304;DHT22;59091;47.446;19.148;2022-07-21T04:43:16;26.35;42.95
71304;DHT22;59091;47.446;19.148;2022-07-21T04:45:41;26.42;42.55
71304;DHT22;59091;47.446;19.148;2022-07-21T04:48:07;26.49;41.84
71304;DHT22;59091;47.446;19.148;2022-07-21T04:50:32;26.47;41.45
71304;DHT22;59091;47.446;19.148;2022-07-21T04:52:58;26.55;42.17
71304;DHT22;59091;47.446;19.148;2022-07-21T04:55:24;26.66;42.19
71304;DHT22;59091;47.446;19.148;2022-07-21T04:57:52;26.77;42.17
71304;DHT22;59091;47.446;19.148;2022-07-21T05:00:22;26.79;40.84
71304;DHT22;59091;47.446;19.148;2022-07-21T05:02:49;26.87;41.24
71304;DHT22;59091;47.446;19.148;2022-07-21T05:05:15;26.91;40.79
71304;DHT22;59091;47.446;19.148;2022-07-21T05:07:41;26.93;39.98
71304;DHT22;59091;47.446;19.148;2022-07-21T05:10:11;26.86;39.46
71304;DHT22;59091;47.446;19.148;2022-07-21T05:12:38;26.97;40.11
71304;DHT22;59091;47.446;19.148;2022-07-21T05:15:07;26.96;39.71
71304;DHT22;59091;47.446;19.148;2022-07-21T05:17:34;27.07;40.11
71304;DHT22;59091;47.446;19.148;2022-07-21T05:20:00;27.24;39.87
71304;DHT22;59091;47.446;19.148;2022-07-21T05:22:25;27.33;39.17
71304;DHT22;59091;47.446;19.148;2022-07-21T05:24:51;27.47;39.19
71304;DHT22;59091;47.446;19.148;2022-07-21T05:27:16;27.56;39.18
71304;DHT22;59091;47.446;19.148;2022-07-21T05:29:42;27.65;38.11
71304;DHT22;59091;47.446;19.148;2022-07-21T05:32:07;27.81;37.69
71304;DHT22;59091;47.446;19.148;2022-07-21T05:34:33;27.95;38.23
71304;DHT22;59091;47.446;19.148;2022-07-21T05:36:58;28.00;37.45
71304;DHT22;59091;47.446;19.148;2022-07-21T05:39:24;28.12;37.71
71304;DHT22;59091;47.446;19.148;2022-07-21T05:41:49;28.26;38.02
71304;DHT22;59091;47.446;19.148;2022-07-21T05:44:15;28.39;36.91
71304;DHT22;59091;47.446;19.148;2022-07-21T05:46:40;28.58;37.02
71304;DHT22;59091;47.446;19.148;2022-07-21T05:49:05;28.71;36.17
71304;DHT22;59091;47.446;19.148;2022-07-21T05:51:31;28.94;35.62
71304;DHT22;59091;47.446;19.148;2022-07-21T05:53:56;29.12;34.97
71304;DHT22;59091;47.446;19.148;2022-07-21T05:56:22;29.28;34.56
71304;DHT22;59091;47.446;19.148;2022-07-21T05:58:47;29.49;34.06
71304;DHT22;59091;47.446;19.148;2022-07-21T06:01:12;29.69;34.31
71304;DHT22;59091;47.446;19.148;2022-07-21T06:03:42;29.83;34.20
71304;DHT22;59091;47.446;19.148;2022-07-21T06:06:08;29.90;33.52
71304;DHT22;59091;47.446;19.148;2022-07-21T06:08:34;30.14;33.65
71304;DHT22;59091;47.446;19.148;2022-07-21T06:11:01;29.96;34.42
71304;DHT22;59091;47.446;19.148;2022-07-21T06:13:26;30.25;33.33
71304;DHT22;59091;47.446;19.148;2022-07-21T06:15:52;30.48;34.22
71304;DHT22;59091;47.446;19.148;2022-07-21T06:18:18;30.55;33.01
71304;DHT22;59091;47.446;19.148;2022-07-21T06:20:43;30.55;32.59
71304;DHT22;59091;47.446;19.148;2022-07-21T06:23:08;30.78;32.85
71304;DHT22;59091;47.446;19.148;2022-07-21T06:25:34;30.88;32.09
71304;DHT22;59091;47.446;19.148;2022-07-21T06:27:59;30.74;32.27
71304;DHT22;59091;47.446;19.148;2022-07-21T06:30:25;30.96;32.81
71304;DHT22;59091;47.446;19.148;2022-07-21T06:32:50;31.31;32.72
71304;DHT22;59091;47.446;19.148;2022-07-21T06:35:16;31.44;32.00
71304;DHT22;59091;47.446;19.148;2022-07-21T06:37:45;31.69;31.21
71304;DHT22;59091;47.446;19.148;2022-07-21T06:40:11;31.60;31.39
71304;DHT22;59091;47.446;19.148;2022-07-21T06:42:36;31.92;31.54
71304;DHT22;59091;47.446;19.148;2022-07-21T06:45:02;32.25;30.74
71304;DHT22;59091;47.446;19.148;2022-07-21T06:47:28;32.28;30.50
71304;DHT22;59091;47.446;19.148;2022-07-21T06:49:53;32.45;30.67
71304;DHT22;59091;47.446;19.148;2022-07-21T06:52:19;32.73;29.59
71304;DHT22;59091;47.446;19.148;2022-07-21T06:54:44;32.59;32.31
71304;DHT22;59091;47.446;19.148;2022-07-21T06:57:10;33.03;30.51
71304;DHT22;59091;47.446;19.148;2022-07-21T06:59:35;33.09;30.20
71304;DHT22;59091;47.446;19.148;2022-07-21T07:02:00;33.35;29.63
71304;DHT22;59091;47.446;19.148;2022-07-21T07:04:26;33.44;29.03
71304;DHT22;59091;47.446;19.148;2022-07-21T07:06:51;33.61;30.84
71304;DHT22;59091;47.446;19.148;2022-07-21T07:09:19;33.94;29.21
71304;DHT22;59091;47.446;19.148;2022-07-21T07:11:44;34.11;29.45
71304;DHT22;59091;47.446;19.148;2022-07-21T07:14:13;33.85;30.34
71304;DHT22;59091;47.446;19.148;2022-07-21T07:16:39;34.23;28.17
71304;DHT22;59091;47.446;19.148;2022-07-21T07:19:04;34.41;28.48
71304;DHT22;59091;47.446;19.148;2022-07-21T07:21:30;34.60;27.78
71304;DHT22;59091;47.446;19.148;2022-07-21T07:23:55;34.66;26.73
71304;DHT22;59091;47.446;19.148;2022-07-21T07:26:20;34.90;27.00
71304;DHT22;59091;47.446;19.148;2022-07-21T07:28:46;35.17;26.70
71304;DHT22;59091;47.446;19.148;2022-07-21T07:31:11;35.01;27.07
71304;DHT22;59091;47.446;19.148;2022-07-21T07:33:36;35.26;26.39
71304;DHT22;59091;47.446;19.148;2022-07-21T07:36:02;35.72;26.04
71304;DHT22;59091;47.446;19.148;2022-07-21T07:38:27;35.81;26.12
71304;DHT22;59091;47.446;19.148;2022-07-21T07:40:53;35.92;25.36
71304;DHT22;59091;47.446;19.148;2022-07-21T07:43:18;36.23;25.02
71304;DHT22;59091;47.446;19.148;2022-07-21T07:45:44;36.30;24.79
71304;DHT22;59091;47.446;19.148;2022-07-21T07:48:09;36.53;24.92
71304;DHT22;59091;47.446;19.148;2022-07-21T07:50:34;36.76;23.89
71304;DHT22;59091;47.446;19.148;2022-07-21T07:53:00;36.74;25.43
71304;DHT22;59091;47.446;19.148;2022-07-21T07:55:25;37.02;23.52
71304;DHT22;59091;47.446;19.148;2022-07-21T07:57:51;36.93;23.60
71304;DHT22;59091;47.446;19.148;2022-07-21T08:00:17;37.20;25.40
71304;DHT22;59091;47.446;19.148;2022-07-21T08:02:43;37.88;24.66
71304;DHT22;59091;47.446;19.148;2022-07-21T08:05:09;38.23;24.78
71304;DHT22;59091;47.446;19.148;2022-07-21T08:07:36;38.46;23.74
71304;DHT22;59091;47.446;19.148;2022-07-21T08:10:10;38.34;22.78
71304;DHT22;59091;47.446;19.148;2022-07-21T08:12:37;38.17;22.59
71304;DHT22;59091;47.446;19.148;2022-07-21T08:15:03;38.13;22.21
71304;DHT22;59091;47.446;19.148;2022-07-21T08:17:28;38.57;23.09
71304;DHT22;59091;47.446;19.148;2022-07-21T08:19:54;38.67;22.11
71304;DHT22;59091;47.446;19.148;2022-07-21T08:22:19;38.66;22.41
71304;DHT22;59091;47.446;19.148;2022-07-21T08:24:45;38.94;21.81
71304;DHT22;59091;47.446;19.148;2022-07-21T08:27:10;38.67;21.77
71304;DHT22;59091;47.446;19.148;2022-07-21T08:29:36;38.91;21.75
71304;DHT22;59091;47.446;19.148;2022-07-21T08:32:02;39.21;21.65
71304;DHT22;59091;47.446;19.148;2022-07-21T08:34:27;39.32;22.07
71304;DHT22;59091;47.446;19.148;2022-07-21T08:36:54;39.63;22.22
71304;DHT22;59091;47.446;19.148;2022-07-21T08:39:19;39.72;23.14
71304;DHT22;59091;47.446;19.148;2022-07-21T08:41:45;39.66;20.92
71304;DHT22;59091;47.446;19.148;2022-07-21T08:44:11;39.68;20.34
71304;DHT22;59091;47.446;19.148;2022-07-21T08:46:41;39.79;20.23
71304;DHT22;59091;47.446;19.148;2022-07-21T08:49:08;39.94;21.67
71304;DHT22;59091;47.446;19.148;2022-07-21T08:51:34;40.31;20.50
71304;DHT22;59091;47.446;19.148;2022-07-21T08:54:00;40.26;20.75
71304;DHT22;59091;47.446;19.148;2022-07-21T08:56:26;40.26;21.19
71304;DHT22;59091;47.446;19.148;2022-07-21T08:58:51;40.48;21.42
71304;DHT22;59091;47.446;19.148;2022-07-21T09:01:16;40.71;21.73
71304;DHT22;59091;47.446;19.148;2022-07-21T09:03:42;40.91;20.35
71304;DHT22;59091;47.446;19.148;2022-07-21T09:06:13;41.29;19.84
71304;DHT22;59091;47.446;19.148;2022-07-21T09:08:47;40.98;20.09
71304;DHT22;59091;47.446;19.148;2022-07-21T09:13:43;41.12;20.23
71304;DHT22;59091;47.446;19.148;2022-07-21T09:16:09;41.22;20.04
71304;DHT22;59091;47.446;19.148;2022-07-21T09:18:46;41.22;18.99
71304;DHT22;59091;47.446;19.148;2022-07-21T09:21:12;40.27;19.54
71304;DHT22;59091;47.446;19.148;2022-07-21T09:23:37;40.36;21.28
71304;DHT22;59091;47.446;19.148;2022-07-21T09:26:03;40.21;20.70
71304;DHT22;59091;47.446;19.148;2022-07-21T09:28:29;40.11;22.07
71304;DHT22;59091;47.446;19.148;2022-07-21T09:31:04;39.63;21.72
71304;DHT22;59091;47.446;19.148;2022-07-21T09:33:37;39.21;22.84
71304;DHT22;59091;47.446;19.148;2022-07-21T09:36:04;39.53;21.92
71304;DHT22;59091;47.446;19.148;2022-07-21T09:38:33;39.33;22.56
71304;DHT22;59091;47.446;19.148;2022-07-21T09:41:14;39.07;21.35
71304;DHT22;59091;47.446;19.148;2022-07-21T09:43:45;38.98;23.08
71304;DHT22;59091;47.446;19.148;2022-07-21T09:46:22;38.81;22.61
71304;DHT22;59091;47.446;19.148;2022-07-21T09:48:51;38.51;21.82
71304;DHT22;59091;47.446;19.148;2022-07-21T09:54:00;38.59;21.11
71304;DHT22;59091;47.446;19.148;2022-07-21T09:56:28;38.16;21.19
71304;DHT22;59091;47.446;19.148;2022-07-21T09:58:55;38.03;21.21
71304;DHT22;59091;47.446;19.148;2022-07-21T10:01:22;37.34;21.95
71304;DHT22;59091;47.446;19.148;2022-07-21T10:03:48;37.38;22.12
71304;DHT22;59091;47.446;19.148;2022-07-21T10:06:16;37.49;21.76
71304;DHT22;59091;47.446;19.148;2022-07-21T10:08:42;37.83;21.60
71304;DHT22;59091;47.446;19.148;2022-07-21T10:11:08;37.88;22.12
71304;DHT22;59091;47.446;19.148;2022-07-21T10:13:33;38.00;22.55
71304;DHT22;59091;47.446;19.148;2022-07-21T10:16:00;38.09;21.57
71304;DHT22;59091;47.446;19.148;2022-07-21T10:18:26;37.90;21.84
71304;DHT22;59091;47.446;19.148;2022-07-21T10:21:02;37.89;21.74
71304;DHT22;59091;47.446;19.148;2022-07-21T10:23:35;37.88;21.53
71304;DHT22;59091;47.446;19.148;2022-07-21T10:26:02;37.39;21.21
71304;DHT22;59091;47.446;19.148;2022-07-21T10:28:30;37.30;21.92
71304;DHT22;59091;47.446;19.148;2022-07-21T10:30:57;37.48;21.38
71304;DHT22;59091;47.446;19.148;2022-07-21T10:41:43;37.37;21.28
71304;DHT22;59091;47.446;19.148;2022-07-21T10:47:04;36.94;22.04
71304;DHT22;59091;47.446;19.148;2022-07-21T10:57:37;37.32;22.13
71304;DHT22;59091;47.446;19.148;2022-07-21T11:00:26;37.24;22.10
71304;DHT22;59091;47.446;19.148;2022-07-21T11:03:03;37.37;23.81
71304;DHT22;59091;47.446;19.148;2022-07-21T11:05:32;37.46;23.75
71304;DHT22;59091;47.446;19.148;2022-07-21T11:08:18;37.58;23.14
71304;DHT22;59091;47.446;19.148;2022-07-21T11:10:48;37.81;23.70
71304;DHT22;59091;47.446;19.148;2022-07-21T11:13:15;37.72;23.93
71304;DHT22;59091;47.446;19.148;2022-07-21T11:15:54;37.92;23.57
71304;DHT22;59091;47.446;19.148;2022-07-21T11:18:25;37.92;23.96
71304;DHT22;59091;47.446;19.148;2022-07-21T11:21:08;38.15;23.24
71304;DHT22;59091;47.446;19.148;2022-07-21T11:23:38;38.40;22.32
71304;DHT22;59091;47.446;19.148;2022-07-21T11:26:04;38.40;21.72
71304;DHT22;59091;47.446;19.148;2022-07-21T11:28:30;38.44;20.87
71304;DHT22;59091;47.446;19.148;2022-07-21T11:31:17;38.47;21.31
71304;DHT22;59091;47.446;19.148;2022-07-21T11:33:46;38.44;20.65
71304;DHT22;59091;47.446;19.148;2022-07-21T11:36:29;38.33;21.35
71304;DHT22;59091;47.446;19.148;2022-07-21T11:39:09;38.56;21.91
71304;DHT22;59091;47.446;19.148;2022-07-21T11:41:36;38.50;21.73
71304;DHT22;59091;47.446;19.148;2022-07-21T11:44:03;38.60;21.22
71304;DHT22;59091;47.446;19.148;2022-07-21T11:46:54;38.68;21.00
71304;DHT22;59091;47.446;19.148;2022-07-21T11:49:19;38.70;20.34
71304;DHT22;59091;47.446;19.148;2022-07-21T11:54:24;38.54;20.91
71304;DHT22;59091;47.446;19.148;2022-07-21T11:56:51;38.53;20.79
71304;DHT22;59091;47.446;19.148;2022-07-21T11:59:17;38.67;20.84
71304;DHT22;59091;47.446;19.148;2022-07-21T12:01:49;38.91;20.48
71304;DHT22;59091;47.446;19.148;2022-07-21T12:04:35;38.97;20.69
71304;DHT22;59091;47.446;19.148;2022-07-21T12:07:03;39.08;20.60
71304;DHT22;59091;47.446;19.148;2022-07-21T12:09:29;39.15;21.09
71304;DHT22;59091;47.446;19.148;2022-07-21T12:11:54;39.08;21.08
71304;DHT22;59091;47.446;19.148;2022-07-21T12:14:20;39.25;20.23
71304;DHT22;59091;47.446;19.148;2022-07-21T12:17:02;39.17;19.85
71304;DHT22;59091;47.446;19.148;2022-07-21T12:19:28;39.10;19.98
71304;DHT22;59091;47.446;19.148;2022-07-21T12:21:53;39.01;20.43
71304;DHT22;59091;47.446;19.148;2022-07-21T12:24:20;39.12;20.24
71304;DHT22;59091;47.446;19.148;2022-07-21T12:26:46;38.88;20.05
71304;DHT22;59091;47.446;19.148;2022-07-21T12:29:30;39.07;20.95
71304;DHT22;59091;47.446;19.148;2022-07-21T12:31:56;38.94;19.95
71304;DHT22;59091;47.446;19.148;2022-07-21T12:34:21;38.73;20.34
71304;DHT22;59091;47.446;19.148;2022-07-21T12:36:49;38.88;19.86
71304;DHT22;59091;47.446;19.148;2022-07-21T12:39:23;39.00;19.68
71304;DHT22;59091;47.446;19.148;2022-07-21T12:42:09;38.63;19.72
71304;DHT22;59091;47.446;19.148;2022-07-21T12:44:36;38.82;19.71
71304;DHT22;59091;47.446;19.148;2022-07-21T12:47:19;39.10;19.36
71304;DHT22;59091;47.446;19.148;2022-07-21T12:50:05;38.87;19.42
71304;DHT22;59091;47.446;19.148;2022-07-21T12:52:32;39.07;20.49
71304;DHT22;59091;47.446;19.148;2022-07-21T12:54:59;39.23;20.06
71304;DHT22;59091;47.446;19.148;2022-07-21T12:57:27;39.42;19.77
71304;DHT22;59091;47.446;19.148;2022-07-21T12:59:53;39.63;19.34
71304;DHT22;59091;47.446;19.148;2022-07-21T13:02:19;39.43;19.68
71304;DHT22;59091;47.446;19.148;2022-07-21T13:04:44;39.37;19.83
71304;DHT22;59091;47.446;19.148;2022-07-21T13:07:10;39.42;19.39
71304;DHT22;59091;47.446;19.148;2022-07-21T13:09:35;39.32;19.38
71304;DHT22;59091;47.446;19.148;2022-07-21T13:12:01;39.37;19.87
71304;DHT22;59091;47.446;19.148;2022-07-21T13:14:26;39.53;19.75
71304;DHT22;59091;47.446;19.148;2022-07-21T13:16:52;39.74;19.61
71304;DHT22;59091;47.446;19.148;2022-07-21T13:19:18;39.94;19.18
71304;DHT22;59091;47.446;19.148;2022-07-21T13:21:44;39.92;21.16
71304;DHT22;59091;47.446;19.148;2022-07-21T13:24:09;39.61;20.06
71304;DHT22;59091;47.446;19.148;2022-07-21T13:26:34;39.59;20.19
71304;DHT22;59091;47.446;19.148;2022-07-21T13:29:00;39.53;20.53
71304;DHT22;59091;47.446;19.148;2022-07-21T13:31:27;39.42;19.36
71304;DHT22;59091;47.446;19.148;2022-07-21T13:33:53;39.51;19.45
71304;DHT22;59091;47.446;19.148;2022-07-21T13:36:18;39.49;19.44
71304;DHT22;59091;47.446;19.148;2022-07-21T13:38:43;39.58;19.28
71304;DHT22;59091;47.446;19.148;2022-07-21T13:41:09;39.70;19.55
71304;DHT22;59091;47.446;19.148;2022-07-21T13:43:35;39.92;19.65
71304;DHT22;59091;47.446;19.148;2022-07-21T13:46:01;40.09;19.75
71304;DHT22;59091;47.446;19.148;2022-07-21T13:48:26;40.29;19.92
71304;DHT22;59091;47.446;19.148;2022-07-21T13:50:52;40.06;20.19
71304;DHT22;59091;47.446;19.148;2022-07-21T13:53:17;40.14;19.96
71304;DHT22;59091;47.446;19.148;2022-07-21T13:55:43;40.23;20.08
71304;DHT22;59091;47.446;19.148;2022-07-21T13:58:08;40.33;19.89
71304;DHT22;59091;47.446;19.148;2022-07-21T14:00:34;40.14;19.25
71304;DHT22;59091;47.446;19.148;2022-07-21T14:03:00;40.14;19.41
71304;DHT22;59091;47.446;19.148;2022-07-21T14:05:25;40.20;19.91
71304;DHT22;59091;47.446;19.148;2022-07-21T14:07:51;40.27;19.08
71304;DHT22;59091;47.446;19.148;2022-07-21T14:10:16;40.06;18.79
71304;DHT22;59091;47.446;19.148;2022-07-21T14:12:41;40.04;19.51
71304;DHT22;59091;47.446;19.148;2022-07-21T14:15:07;40.06;18.69
71304;DHT22;59091;47.446;19.148;2022-07-21T14:17:33;40.03;18.68
71304;DHT22;59091;47.446;19.148;2022-07-21T14:19:58;39.74;18.33
71304;DHT22;59091;47.446;19.148;2022-07-21T14:22:23;39.66;17.87
71304;DHT22;59091;47.446;19.148;2022-07-21T14:24:49;39.73;17.85
71304;DHT22;59091;47.446;19.148;2022-07-21T14:27:33;39.76;18.28
71304;DHT22;59091;47.446;19.148;2022-07-21T14:29:58;39.68;18.51
71304;DHT22;59091;47.446;19.148;2022-07-21T14:32:26;39.62;17.61
71304;DHT22;59091;47.446;19.148;2022-07-21T14:34:52;39.52;17.86
71304;DHT22;59091;47.446;19.148;2022-07-21T14:37:18;39.55;17.71
71304;DHT22;59091;47.446;19.148;2022-07-21T14:39:47;39.59;18.10
71304;DHT22;59091;47.446;19.148;2022-07-21T14:42:14;39.70;18.01
71304;DHT22;59091;47.446;19.148;2022-07-21T14:44:40;39.88;17.92
71304;DHT22;59091;47.446;19.148;2022-07-21T14:47:06;40.06;18.05
71304;DHT22;59091;47.446;19.148;2022-07-21T14:49:33;40.26;17.98
71304;DHT22;59091;47.446;19.148;2022-07-21T14:51:58;40.26;18.08
71304;DHT22;59091;47.446;19.148;2022-07-21T14:54:24;40.40;18.04
71304;DHT22;59091;47.446;19.148;2022-07-21T14:56:49;40.41;18.18
71304;DHT22;59091;47.446;19.148;2022-07-21T14:59:15;40.55;18.16
71304;DHT22;59091;47.446;19.148;2022-07-21T15:01:40;40.23;16.91
71304;DHT22;59091;47.446;19.148;2022-07-21T15:04:06;40.00;17.30
71304;DHT22;59091;47.446;19.148;2022-07-21T15:06:32;39.90;17.43
71304;DHT22;59091;47.446;19.148;2022-07-21T15:08:58;39.90;17.08
71304;DHT22;59091;47.446;19.148;2022-07-21T15:11:24;39.85;17.22
71304;DHT22;59091;47.446;19.148;2022-07-21T15:13:49;39.73;17.03
71304;DHT22;59091;47.446;19.148;2022-07-21T15:16:15;39.48;17.01
71304;DHT22;59091;47.446;19.148;2022-07-21T15:18:40;39.23;17.86
71304;DHT22;59091;47.446;19.148;2022-07-21T15:21:06;39.42;17.45
71304;DHT22;59091;47.446;19.148;2022-07-21T15:23:31;39.35;17.38
71304;DHT22;59091;47.446;19.148;2022-07-21T15:25:57;39.28;17.62
71304;DHT22;59091;47.446;19.148;2022-07-21T15:28:22;39.32;17.66
71304;DHT22;59091;47.446;19.148;2022-07-21T15:30:47;39.35;17.47
71304;DHT22;59091;47.446;19.148;2022-07-21T15:33:13;39.53;17.61
71304;DHT22;59091;47.446;19.148;2022-07-21T15:35:38;39.53;17.90
71304;DHT22;59091;47.446;19.148;2022-07-21T15:38:04;39.56;17.54
71304;DHT22;59091;47.446;19.148;2022-07-21T15:40:30;39.66;17.44